sensor_id;sensor_type;location;lat;lon;timestamp;pressure;altitude;pressure_sealevel;temperature;humidity
66857;BME280;53766;50.280;19.160;2022-09-12T00:00:49;98278.81;;;22.60;48.22
66857;BME280;53766;50.280;19.160;2022-09-12T00:03:36;98281.50;;;22.60;48.10
66857;BME280;53766;50.280;19.160;2022-09-12T00:06:15;98280.47;;;22.61;47.96
66857;BME280;53766;50.280;19.160;2022-09-12T00:08:50;98289.56;;;22.60;48.09
66857;BME280;53766;50.280;19.160;2022-09-12T00:11:19;98287.72;;;22.61;47.86
66857;BME280;53766;50.280;19.160;2022-09-12T00:13:48;98280.69;;;22.59;48.02
66857;BME280;53766;50.280;19.160;2022-09-12T00:16:21;98279.88;;;22.59;47.80
66857;BME280;53766;50.280;19.160;2022-09-12T00:18:49;98288.75;;;22.59;47.91
66857;BME280;53766;50.280;19.160;2022-09-12T00:21:17;98291.44;;;22.59;47.90
66857;BME280;53766;50.280;19.160;2022-09-12T00:23:46;98287.94;;;22.59;47.87
66857;BME280;53766;50.280;19.160;2022-09-12T00:26:13;98283.38;;;22.59;47.96
66857;BME280;53766;50.280;19.160;2022-09-12T00:28:41;98282.56;;;22.59;48.02
66857;BME280;53766;50.280;19.160;2022-09-12T00:31:15;98280.69;;;22.59;47.82
66857;BME280;53766;50.280;19.160;2022-09-12T00:33:43;98288.75;;;22.59;47.71
66857;BME280;53766;50.280;19.160;2022-09-12T00:36:14;98287.13;;;22.58;47.81
66857;BME280;53766;50.280;19.160;2022-09-12T00:38:43;98288.75;;;22.59;47.76
66857;BME280;53766;50.280;19.160;2022-09-12T00:41:27;98292.50;;;22.58;47.84
66857;BME280;53766;50.280;19.160;2022-09-12T00:43:57;98291.66;;;22.58;47.82
66857;BME280;53766;50.280;19.160;2022-09-12T00:46:34;98287.13;;;22.58;47.82
66857;BME280;53766;50.280;19.160;2022-09-12T00:49:16;98280.91;;;22.58;47.77
66857;BME280;53766;50.280;19.160;2022-09-12T00:51:54;98280.09;;;22.57;47.78
66857;BME280;53766;50.280;19.160;2022-09-12T00:54:29;98282.78;;;22.57;47.70
66857;BME280;53766;50.280;19.160;2022-09-12T00:57:02;98287.13;;;22.58;47.60
66857;BME280;53766;50.280;19.160;2022-09-12T00:59:37;98285.47;;;22.57;47.65
66857;BME280;53766;50.280;19.160;2022-09-12T01:02:07;98288.97;;;22.58;47.68
66857;BME280;53766;50.280;19.160;2022-09-12T01:04:36;98291.66;;;22.58;47.58
66857;BME280;53766;50.280;19.160;2022-09-12T01:07:07;98290.84;;;22.57;47.56
66857;BME280;53766;50.280;19.160;2022-09-12T01:09:35;98294.59;;;22.56;47.62
66857;BME280;53766;50.280;19.160;2022-09-12T01:12:03;98293.53;;;22.57;47.59
66857;BME280;53766;50.280;19.160;2022-09-12T01:14:33;98296.22;;;22.57;47.51
66857;BME280;53766;50.280;19.160;2022-09-12T01:17:01;98295.41;;;22.57;47.63
66857;BME280;53766;50.280;19.160;2022-09-12T01:25:30;98287.34;;;22.57;47.28
66857;BME280;53766;50.280;19.160;2022-09-12T01:31:02;98291.34;;;22.54;47.46
66857;BME280;53766;50.280;19.160;2022-09-12T01:34:00;98289.69;;;22.53;47.50
66857;BME280;53766;50.280;19.160;2022-09-12T01:39:08;98287.84;;;22.54;47.41
66857;BME280;53766;50.280;19.160;2022-09-12T01:41:55;98286.19;;;22.53;47.38
66857;BME280;53766;50.280;19.160;2022-09-12T01:44:55;98278.94;;;22.53;47.25
66857;BME280;53766;50.280;19.160;2022-09-12T01:47:39;98281.63;;;22.53;47.37
66857;BME280;53766;50.280;19.160;2022-09-12T01:55:21;98285.38;;;22.52;47.02
66857;BME280;53766;50.280;19.160;2022-09-12T01:58:05;98291.78;;;22.51;47.28
66857;BME280;53766;50.280;19.160;2022-09-12T02:00:47;98291.78;;;22.51;47.28
66857;BME280;53766;50.280;19.160;2022-09-12T02:03:21;98292.84;;;22.50;47.68
66857;BME280;53766;50.280;19.160;2022-09-12T02:05:55;98297.16;;;22.51;47.09
66857;BME280;53766;50.280;19.160;2022-09-12T02:11:09;98303.34;;;22.52;47.15
66857;BME280;53766;50.280;19.160;2022-09-12T02:13:48;98295.53;;;22.50;47.13
66857;BME280;53766;50.280;19.160;2022-09-12T02:16:24;98301.69;;;22.51;47.23
66857;BME280;53766;50.280;19.160;2022-09-12T02:18:59;98307.06;;;22.51;47.15
66857;BME280;53766;50.280;19.160;2022-09-12T02:21:30;98314.31;;;22.50;47.23
66857;BME280;53766;50.280;19.160;2022-09-12T02:24:02;98304.63;;;22.49;47.09
66857;BME280;53766;50.280;19.160;2022-09-12T02:26:39;98300.91;;;22.50;47.42
66857;BME280;53766;50.280;19.160;2022-09-12T02:29:08;98308.94;;;22.50;46.99
66857;BME280;53766;50.280;19.160;2022-09-12T02:31:47;98303.56;;;22.50;46.99
66857;BME280;53766;50.280;19.160;2022-09-12T02:34:42;98295.53;;;22.50;46.92
66857;BME280;53766;50.280;19.160;2022-09-12T02:39:42;98293.88;;;22.49;47.24
66857;BME280;53766;50.280;19.160;2022-09-12T02:42:12;98293.06;;;22.49;47.05
66857;BME280;53766;50.280;19.160;2022-09-12T02:44:40;98300.91;;;22.50;46.87
66857;BME280;53766;50.280;19.160;2022-09-12T02:47:24;98295.53;;;22.50;46.67
66857;BME280;53766;50.280;19.160;2022-09-12T02:49:53;98299.25;;;22.49;46.70
66857;BME280;53766;50.280;19.160;2022-09-12T02:52:21;98294.72;;;22.50;46.75
66857;BME280;53766;50.280;19.160;2022-09-12T02:54:49;98293.88;;;22.49;46.93
66857;BME280;53766;50.280;19.160;2022-09-12T02:57:19;98298.44;;;22.49;47.06
66857;BME280;53766;50.280;19.160;2022-09-12T02:59:52;98303.00;;;22.48;46.66
66857;BME280;53766;50.280;19.160;2022-09-12T03:02:47;98301.38;;;22.47;46.60
66857;BME280;53766;50.280;19.160;2022-09-12T03:05:28;98308.38;;;22.48;46.51
66857;BME280;53766;50.280;19.160;2022-09-12T03:13:20;98313.16;;;22.46;46.32
66857;BME280;53766;50.280;19.160;2022-09-12T03:21:01;98315.81;;;22.46;46.43
66857;BME280;53766;50.280;19.160;2022-09-12T03:26:11;98315.81;;;22.46;46.50
66857;BME280;53766;50.280;19.160;2022-09-12T03:28:43;98320.38;;;22.46;46.69
66857;BME280;53766;50.280;19.160;2022-09-12T03:31:15;98314.22;;;22.45;46.37
66857;BME280;53766;50.280;19.160;2022-09-12T03:33:44;98315.81;;;22.46;46.33
66857;BME280;53766;50.280;19.160;2022-09-12T03:36:15;98314.22;;;22.45;46.79
66857;BME280;53766;50.280;19.160;2022-09-12T03:38:43;98313.16;;;22.46;46.51
66857;BME280;53766;50.280;19.160;2022-09-12T03:41:11;98315.03;;;22.46;46.23
66857;BME280;53766;50.280;19.160;2022-09-12T03:43:38;98313.16;;;22.46;46.48
66857;BME280;53766;50.280;19.160;2022-09-12T03:46:05;98312.34;;;22.46;46.49
66857;BME280;53766;50.280;19.160;2022-09-12T03:48:33;98318.50;;;22.46;46.38
66857;BME280;53766;50.280;19.160;2022-09-12T03:51:02;98324.94;;;22.45;46.40
66857;BME280;53766;50.280;19.160;2022-09-12T03:53:30;98326.56;;;22.46;46.43
66857;BME280;53766;50.280;19.160;2022-09-12T03:55:58;98333.00;;;22.45;46.06
66857;BME280;53766;50.280;19.160;2022-09-12T03:58:29;98328.66;;;22.44;46.22
66857;BME280;53766;50.280;19.160;2022-09-12T04:00:57;98329.47;;;22.45;46.07
66857;BME280;53766;50.280;19.160;2022-09-12T04:03:24;98329.47;;;22.45;45.92
66857;BME280;53766;50.280;19.160;2022-09-12T04:05:52;98334.03;;;22.44;46.03
66857;BME280;53766;50.280;19.160;2022-09-12T04:08:19;98329.72;;;22.43;46.12
66857;BME280;53766;50.280;19.160;2022-09-12T04:10:47;98331.34;;;22.44;46.23
66857;BME280;53766;50.280;19.160;2022-09-12T04:13:15;98325.97;;;22.44;46.04
66857;BME280;53766;50.280;19.160;2022-09-12T04:15:43;98337.78;;;22.43;45.67
66857;BME280;53766;50.280;19.160;2022-09-12T04:18:10;98332.41;;;22.43;46.08
66857;BME280;53766;50.280;19.160;2022-09-12T04:20:38;98337.78;;;22.43;45.87
66857;BME280;53766;50.280;19.160;2022-09-12T04:23:05;98342.31;;;22.43;46.12
66857;BME280;53766;50.280;19.160;2022-09-12T04:25:33;98341.50;;;22.42;46.30
66857;BME280;53766;50.280;19.160;2022-09-12T04:28:00;98341.50;;;22.42;46.00
66857;BME280;53766;50.280;19.160;2022-09-12T04:30:28;98341.50;;;22.42;46.07
66857;BME280;53766;50.280;19.160;2022-09-12T04:32:55;98341.50;;;22.42;46.36
66857;BME280;53766;50.280;19.160;2022-09-12T04:35:23;98344.16;;;22.42;46.24
66857;BME280;53766;50.280;19.160;2022-09-12T04:37:50;98349.53;;;22.42;45.77
66857;BME280;53766;50.280;19.160;2022-09-12T04:40:18;98346.84;;;22.42;45.97
66857;BME280;53766;50.280;19.160;2022-09-12T04:42:45;98347.91;;;22.41;46.12
66857;BME280;53766;50.280;19.160;2022-09-12T04:45:13;98346.84;;;22.42;46.12
66857;BME280;53766;50.280;19.160;2022-09-12T04:47:40;98348.72;;;22.42;45.97
66857;BME280;53766;50.280;19.160;2022-09-12T04:50:08;98346.84;;;22.42;45.85
66857;BME280;53766;50.280;19.160;2022-09-12T04:52:35;98349.53;;;22.42;45.65
66857;BME280;53766;50.280;19.160;2022-09-12T04:55:03;98350.59;;;22.41;45.76
66857;BME280;53766;50.280;19.160;2022-09-12T04:57:31;98354.31;;;22.40;46.09
66857;BME280;53766;50.280;19.160;2022-09-12T04:59:58;98359.69;;;22.40;46.01
66857;BME280;53766;50.280;19.160;2022-09-12T05:02:33;98359.69;;;22.40;45.79
66857;BME280;53766;50.280;19.160;2022-09-12T05:05:01;98361.34;;;22.41;45.71
66857;BME280;53766;50.280;19.160;2022-09-12T05:07:28;98365.06;;;22.40;45.56
66857;BME280;53766;50.280;19.160;2022-09-12T05:09:57;98367.75;;;22.40;45.81
66857;BME280;53766;50.280;19.160;2022-09-12T05:12:26;98368.81;;;22.39;45.51
66857;BME280;53766;50.280;19.160;2022-09-12T05:14:53;98371.47;;;22.39;45.33
66857;BME280;53766;50.280;19.160;2022-09-12T05:17:21;98376.03;;;22.38;45.43
66857;BME280;53766;50.280;19.160;2022-09-12T05:19:49;98374.16;;;22.39;45.41
66857;BME280;53766;50.280;19.160;2022-09-12T05:22:16;98375.78;;;22.40;45.49
66857;BME280;53766;50.280;19.160;2022-09-12T05:24:44;98375.78;;;22.40;45.75
66857;BME280;53766;50.280;19.160;2022-09-12T05:27:16;98375.19;;;22.38;45.29
66857;BME280;53766;50.280;19.160;2022-09-12T05:29:44;98377.88;;;22.38;45.20
66857;BME280;53766;50.280;19.160;2022-09-12T05:32:11;98377.88;;;22.38;45.01
66857;BME280;53766;50.280;19.160;2022-09-12T05:34:39;98388.63;;;22.38;45.24
66857;BME280;53766;50.280;19.160;2022-09-12T05:37:06;98388.63;;;22.38;45.13
66857;BME280;53766;50.280;19.160;2022-09-12T05:39:34;98392.94;;;22.39;44.91
66857;BME280;53766;50.280;19.160;2022-09-12T05:42:01;98395.63;;;22.39;45.00
66857;BME280;53766;50.280;19.160;2022-09-12T05:44:29;98390.25;;;22.39;45.52
66857;BME280;53766;50.280;19.160;2022-09-12T05:46:57;98385.72;;;22.39;45.26
66857;BME280;53766;50.280;19.160;2022-09-12T05:49:24;98386.53;;;22.40;45.39
66857;BME280;53766;50.280;19.160;2022-09-12T05:51:53;98384.91;;;22.39;45.34
66857;BME280;53766;50.280;19.160;2022-09-12T05:54:20;98395.63;;;22.39;45.38
66857;BME280;53766;50.280;19.160;2022-09-12T05:56:48;98391.06;;;22.39;45.50
66857;BME280;53766;50.280;19.160;2022-09-12T05:59:19;98388.63;;;22.38;45.10
66857;BME280;53766;50.280;19.160;2022-09-12T06:01:47;98394.81;;;22.38;44.85
66857;BME280;53766;50.280;19.160;2022-09-12T06:04:15;98388.63;;;22.38;44.78
66857;BME280;53766;50.280;19.160;2022-09-12T06:06:44;98398.53;;;22.37;44.43
66857;BME280;53766;50.280;19.160;2022-09-12T06:09:13;98393.97;;;22.38;45.31
66857;BME280;53766;50.280;19.160;2022-09-12T06:11:42;98389.69;;;22.37;45.16
66857;BME280;53766;50.280;19.160;2022-09-12T06:14:13;98395.63;;;22.39;44.96
66857;BME280;53766;50.280;19.160;2022-09-12T06:16:41;98398.31;;;22.39;44.99
66857;BME280;53766;50.280;19.160;2022-09-12T06:19:17;98393.97;;;22.38;45.01
66857;BME280;53766;50.280;19.160;2022-09-12T06:21:46;98401.81;;;22.39;44.68
66857;BME280;53766;50.280;19.160;2022-09-12T06:24:16;98402.63;;;22.40;44.41
66857;BME280;53766;50.280;19.160;2022-09-12T06:26:44;98399.94;;;22.40;44.07
66857;BME280;53766;50.280;19.160;2022-09-12T06:29:13;98397.25;;;22.40;44.38
66857;BME280;53766;50.280;19.160;2022-09-12T06:31:42;98397.25;;;22.40;44.53
66857;BME280;53766;50.280;19.160;2022-09-12T06:34:12;98397.25;;;22.40;44.42
66857;BME280;53766;50.280;19.160;2022-09-12T06:36:43;98404.72;;;22.38;44.56
66857;BME280;53766;50.280;19.160;2022-09-12T06:39:14;98404.50;;;22.39;44.77
66857;BME280;53766;50.280;19.160;2022-09-12T06:41:43;98406.38;;;22.39;44.46
66857;BME280;53766;50.280;19.160;2022-09-12T06:44:15;98411.72;;;22.39;44.37
66857;BME280;53766;50.280;19.160;2022-09-12T06:46:44;98409.06;;;22.39;44.48
66857;BME280;53766;50.280;19.160;2022-09-12T06:49:12;98407.97;;;22.40;44.15
66857;BME280;53766;50.280;19.160;2022-09-12T06:51:40;98406.38;;;22.39;44.53
66857;BME280;53766;50.280;19.160;2022-09-12T06:54:13;98406.81;;;22.36;44.16
66857;BME280;53766;50.280;19.160;2022-09-12T06:56:43;98409.50;;;22.36;44.08
66857;BME280;53766;50.280;19.160;2022-09-12T06:59:10;98408.47;;;22.37;44.11
66857;BME280;53766;50.280;19.160;2022-09-12T07:01:40;98412.75;;;22.38;44.23
66857;BME280;53766;50.280;19.160;2022-09-12T07:04:09;98411.16;;;22.37;43.98
66857;BME280;53766;50.280;19.160;2022-09-12T07:06:40;98411.16;;;22.37;44.07
66857;BME280;53766;50.280;19.160;2022-09-12T07:09:10;98409.28;;;22.37;43.91
66857;BME280;53766;50.280;19.160;2022-09-12T07:11:40;98415.44;;;22.38;44.31
66857;BME280;53766;50.280;19.160;2022-09-12T07:14:10;98409.06;;;22.39;43.66
66857;BME280;53766;50.280;19.160;2022-09-12T07:16:41;98411.72;;;22.39;44.35
66857;BME280;53766;50.280;19.160;2022-09-12T07:19:09;98411.72;;;22.39;43.61
66857;BME280;53766;50.280;19.160;2022-09-12T07:21:36;98415.00;;;22.41;44.00
66857;BME280;53766;50.280;19.160;2022-09-12T07:24:08;98419.31;;;22.42;43.06
66857;BME280;53766;50.280;19.160;2022-09-12T07:26:38;98420.38;;;22.41;43.70
66857;BME280;53766;50.280;19.160;2022-09-12T07:29:11;98416.63;;;22.42;44.29
66857;BME280;53766;50.280;19.160;2022-09-12T07:31:59;98412.91;;;22.43;43.12
66857;BME280;53766;50.280;19.160;2022-09-12T07:34:28;98419.91;;;22.44;42.85
66857;BME280;53766;50.280;19.160;2022-09-12T07:36:56;98420.72;;;22.45;42.85
66857;BME280;53766;50.280;19.160;2022-09-12T07:39:24;98425.25;;;22.44;42.71
66857;BME280;53766;50.280;19.160;2022-09-12T07:41:51;98441.38;;;22.44;43.28
66857;BME280;53766;50.280;19.160;2022-09-12T07:44:19;98440.78;;;22.42;44.06
66857;BME280;53766;50.280;19.160;2022-09-12T07:46:48;98442.19;;;22.45;42.96
66857;BME280;53766;50.280;19.160;2022-09-12T07:49:16;98444.63;;;22.46;42.57
66857;BME280;53766;50.280;19.160;2022-09-12T07:51:44;98440.94;;;22.47;42.31
66857;BME280;53766;50.280;19.160;2022-09-12T07:54:12;98444.63;;;22.46;42.58
66857;BME280;53766;50.280;19.160;2022-09-12T07:56:39;98444.63;;;22.46;42.43
66857;BME280;53766;50.280;19.160;2022-09-12T07:59:07;98458.28;;;22.45;42.50
66857;BME280;53766;50.280;19.160;2022-09-12T08:01:35;98448.00;;;22.42;43.28
66857;BME280;53766;50.280;19.160;2022-09-12T08:04:02;98448.81;;;22.42;43.34
66857;BME280;53766;50.280;19.160;2022-09-12T08:06:32;98450.47;;;22.43;43.52
66857;BME280;53766;50.280;19.160;2022-09-12T08:09:03;98445.13;;;22.43;43.17
66857;BME280;53766;50.280;19.160;2022-09-12T08:11:31;98447.53;;;22.45;42.75
66857;BME280;53766;50.280;19.160;2022-09-12T08:13:58;98443.03;;;22.45;42.43
66857;BME280;53766;50.280;19.160;2022-09-12T08:16:29;98445.69;;;22.45;42.89
66857;BME280;53766;50.280;19.160;2022-09-12T08:19:02;98443.84;;;22.46;42.07
66857;BME280;53766;50.280;19.160;2022-09-12T08:21:31;98444.63;;;22.46;41.72
66857;BME280;53766;50.280;19.160;2022-09-12T08:24:04;98447.09;;;22.48;41.53
66857;BME280;53766;50.280;19.160;2022-09-12T08:26:34;98437.19;;;22.48;41.36
66857;BME280;53766;50.280;19.160;2022-09-12T08:29:03;98431.81;;;22.48;41.37
66857;BME280;53766;50.280;19.160;2022-09-12T08:31:31;98430.75;;;22.49;41.31
66857;BME280;53766;50.280;19.160;2022-09-12T08:34:04;98433.91;;;22.46;42.72
66857;BME280;53766;50.280;19.160;2022-09-12T08:36:33;98449.19;;;22.46;42.74
66857;BME280;53766;50.280;19.160;2022-09-12T08:39:04;98443.03;;;22.45;42.13
66857;BME280;53766;50.280;19.160;2022-09-12T08:42:01;98437.66;;;22.45;41.94
66857;BME280;53766;50.280;19.160;2022-09-12T08:55:05;98439.28;;;22.46;42.17
66857;BME280;53766;50.280;19.160;2022-09-12T08:57:33;98429.59;;;22.45;40.99
66857;BME280;53766;50.280;19.160;2022-09-12T09:00:02;98425.63;;;22.48;40.27
66857;BME280;53766;50.280;19.160;2022-09-12T09:08:24;98430.19;;;22.47;40.38
66857;BME280;53766;50.280;19.160;2022-09-12T09:16:40;98438.00;;;22.49;40.24
66857;BME280;53766;50.280;19.160;2022-09-12T09:19:17;98434.03;;;22.51;40.27
66857;BME280;53766;50.280;19.160;2022-09-12T09:22:06;98436.69;;;22.51;40.21
66857;BME280;53766;50.280;19.160;2022-09-12T09:25:01;98430.75;;;22.49;40.31
66857;BME280;53766;50.280;19.160;2022-09-12T09:27:36;98432.41;;;22.50;40.24
66857;BME280;53766;50.280;19.160;2022-09-12T09:30:14;98429.72;;;22.50;39.79
66857;BME280;53766;50.280;19.160;2022-09-12T09:32:45;98431.34;;;22.51;39.92
66857;BME280;53766;50.280;19.160;2022-09-12T09:35:21;98423.06;;;22.53;40.10
66857;BME280;53766;50.280;19.160;2022-09-12T09:38:02;98430.31;;;22.52;40.13
66857;BME280;53766;50.280;19.160;2022-09-12T09:43:14;98431.34;;;22.51;39.96
66857;BME280;53766;50.280;19.160;2022-09-12T09:45:44;98432.19;;;22.52;39.99
66857;BME280;53766;50.280;19.160;2022-09-12T09:48:20;98432.50;;;22.55;39.81
66857;BME280;53766;50.280;19.160;2022-09-12T09:50:49;98428.00;;;22.56;39.72
66857;BME280;53766;50.280;19.160;2022-09-12T09:55:58;98435.78;;;22.57;39.93
66857;BME280;53766;50.280;19.160;2022-09-12T09:58:33;98424.59;;;22.61;39.82
66857;BME280;53766;50.280;19.160;2022-09-12T10:01:03;98431.59;;;22.62;39.74
66857;BME280;53766;50.280;19.160;2022-09-12T10:03:36;98430.78;;;22.61;39.84
66857;BME280;53766;50.280;19.160;2022-09-12T10:06:22;98438.25;;;22.59;39.81
66857;BME280;53766;50.280;19.160;2022-09-12T10:09:06;98440.34;;;22.57;39.88
66857;BME280;53766;50.280;19.160;2022-09-12T10:11:44;98443.25;;;22.55;39.31
66857;BME280;53766;50.280;19.160;2022-09-12T10:16:57;98433.69;;;22.59;39.62
66857;BME280;53766;50.280;19.160;2022-09-12T10:19:36;98434.28;;;22.62;39.64
66857;BME280;53766;50.280;19.160;2022-09-12T10:22:05;98435.94;;;22.63;39.51
66857;BME280;53766;50.280;19.160;2022-09-12T10:24:46;98434.06;;;22.63;39.48
66857;BME280;53766;50.280;19.160;2022-09-12T10:27:18;98434.88;;;22.64;39.48
66857;BME280;53766;50.280;19.160;2022-09-12T10:29:52;98434.38;;;22.67;39.30
66857;BME280;53766;50.280;19.160;2022-09-12T10:35:00;98428.22;;;22.66;39.34
66857;BME280;53766;50.280;19.160;2022-09-12T10:37:34;98425.78;;;22.65;39.44
66857;BME280;53766;50.280;19.160;2022-09-12T10:40:05;98422.84;;;22.66;39.14
66857;BME280;53766;50.280;19.160;2022-09-12T10:45:30;98424.13;;;22.64;39.21
66857;BME280;53766;50.280;19.160;2022-09-12T10:48:00;98422.50;;;22.63;39.23
66857;BME280;53766;50.280;19.160;2022-09-12T10:50:41;98426.22;;;22.62;38.71
66857;BME280;53766;50.280;19.160;2022-09-12T10:53:19;98422.84;;;22.66;39.09
66857;BME280;53766;50.280;19.160;2022-09-12T10:56:04;98429.03;;;22.67;39.03
66857;BME280;53766;50.280;19.160;2022-09-12T11:13:19;98420.63;;;22.75;38.81
66857;BME280;53766;50.280;19.160;2022-09-12T11:18:56;98426.81;;;22.75;38.88
66857;BME280;53766;50.280;19.160;2022-09-12T11:21:51;98425.78;;;22.76;38.62
66857;BME280;53766;50.280;19.160;2022-09-12T11:25:45;98420.19;;;22.78;38.63
66857;BME280;53766;50.280;19.160;2022-09-12T11:28:05;98421.81;;;22.79;38.49
66857;BME280;53766;50.280;19.160;2022-09-12T11:30:54;98415.16;;;22.82;38.45
66857;BME280;53766;50.280;19.160;2022-09-12T11:33:40;98421.34;;;22.82;38.20
66857;BME280;53766;50.280;19.160;2022-09-12T11:36:35;98415.97;;;22.82;38.13
66857;BME280;53766;50.280;19.160;2022-09-12T11:39:18;98406.88;;;22.83;37.98
66857;BME280;53766;50.280;19.160;2022-09-12T11:41:55;98404.19;;;22.83;37.83
66857;BME280;53766;50.280;19.160;2022-09-12T11:44:33;98414.34;;;22.81;37.47
66857;BME280;53766;50.280;19.160;2022-09-12T11:47:10;98419.72;;;22.81;37.65
66857;BME280;53766;50.280;19.160;2022-09-12T11:49:42;98426.38;;;22.78;37.64
66857;BME280;53766;50.280;19.160;2022-09-12T11:52:17;98421.44;;;22.75;37.80
66857;BME280;53766;50.280;19.160;2022-09-12T11:54:49;98424.97;;;22.76;37.72
66857;BME280;53766;50.280;19.160;2022-09-12T11:57:43;98425.28;;;22.79;37.46
66857;BME280;53766;50.280;19.160;2022-09-12T12:00:25;98428.47;;;22.76;37.50
66857;BME280;53766;50.280;19.160;2022-09-12T12:05:31;98424.50;;;22.79;37.52
66857;BME280;53766;50.280;19.160;2022-09-12T12:08:04;98427.97;;;22.79;37.58
66857;BME280;53766;50.280;19.160;2022-09-12T12:10:37;98431.16;;;22.76;37.25
66857;BME280;53766;50.280;19.160;2022-09-12T12:13:29;98427.06;;;22.74;37.22
66857;BME280;53766;50.280;19.160;2022-09-12T12:16:07;98424.38;;;22.74;37.02
66857;BME280;53766;50.280;19.160;2022-09-12T12:18:39;98423.44;;;22.80;37.68
66857;BME280;53766;50.280;19.160;2022-09-12T12:57:58;98421.34;;;22.82;37.45
66857;BME280;53766;50.280;19.160;2022-09-12T13:00:31;98429.97;;;22.84;37.45
66857;BME280;53766;50.280;19.160;2022-09-12T13:05:51;98423.19;;;22.82;37.24
66857;BME280;53766;50.280;19.160;2022-09-12T13:08:30;98418.41;;;22.84;37.35
66857;BME280;53766;50.280;19.160;2022-09-12T13:11:15;98422.03;;;22.89;37.44
66857;BME280;53766;50.280;19.160;2022-09-12T13:13:49;98412.94;;;22.90;37.29
66857;BME280;53766;50.280;19.160;2022-09-12T13:16:36;98422.03;;;22.89;37.14
66857;BME280;53766;50.280;19.160;2022-09-12T13:19:14;98411.31;;;22.89;37.34
66857;BME280;53766;50.280;19.160;2022-09-12T13:22:04;98414.22;;;22.88;37.49
66857;BME280;53766;50.280;19.160;2022-09-12T13:24:34;98413.41;;;22.87;37.65
66857;BME280;53766;50.280;19.160;2022-09-12T13:27:23;98414.69;;;22.85;37.44
66857;BME280;53766;50.280;19.160;2022-09-12T13:30:13;98405.81;;;22.84;37.56
66857;BME280;53766;50.280;19.160;2022-09-12T13:32:42;98418.41;;;22.84;37.42
66857;BME280;53766;50.280;19.160;2022-09-12T13:35:21;98406.38;;;22.86;37.47
66857;BME280;53766;50.280;19.160;2022-09-12T13:38:32;98409.66;;;22.88;37.37
66857;BME280;53766;50.280;19.160;2022-09-12T13:41:18;98404.88;;;22.90;37.83
66857;BME280;53766;50.280;19.160;2022-09-12T13:43:48;98401.72;;;22.93;37.46
66857;BME280;53766;50.280;19.160;2022-09-12T13:46:27;98402.91;;;22.97;37.55
66857;BME280;53766;50.280;19.160;2022-09-12T13:48:59;98403.25;;;23.01;37.60
66857;BME280;53766;50.280;19.160;2022-09-12T13:51:29;98403.63;;;23.05;37.39
66857;BME280;53766;50.280;19.160;2022-09-12T13:54:01;98403.41;;;23.06;37.63
66857;BME280;53766;50.280;19.160;2022-09-12T13:56:30;98395.06;;;23.08;37.58
66857;BME280;53766;50.280;19.160;2022-09-12T13:58:59;98406.41;;;23.10;37.43
66857;BME280;53766;50.280;19.160;2022-09-12T14:01:43;98395.22;;;23.13;37.32
66857;BME280;53766;50.280;19.160;2022-09-12T14:07:01;98388.06;;;23.18;37.39
66857;BME280;53766;50.280;19.160;2022-09-12T14:09:44;98385.94;;;23.20;37.47
66857;BME280;53766;50.280;19.160;2022-09-12T14:12:37;98381.38;;;23.21;37.37
66857;BME280;53766;50.280;19.160;2022-09-12T14:15:20;98384.66;;;23.23;37.52
66857;BME280;53766;50.280;19.160;2022-09-12T14:17:54;98390.03;;;23.23;37.51
66857;BME280;53766;50.280;19.160;2022-09-12T14:20:27;98383.50;;;23.19;37.68
66857;BME280;53766;50.280;19.160;2022-09-12T14:23:17;98382.09;;;23.16;37.70
66857;BME280;53766;50.280;19.160;2022-09-12T14:25:47;98385.63;;;23.17;37.77
66857;BME280;53766;50.280;19.160;2022-09-12T14:28:16;98386.75;;;23.21;37.76
66857;BME280;53766;50.280;19.160;2022-09-12T14:31:05;98378.47;;;23.23;37.71
66857;BME280;53766;50.280;19.160;2022-09-12T14:33:46;98378.03;;;23.26;37.72
66857;BME280;53766;50.280;19.160;2022-09-12T14:36:24;98373.44;;;23.26;37.65
66857;BME280;53766;50.280;19.160;2022-09-12T14:38:56;98377.75;;;23.27;37.96
66857;BME280;53766;50.280;19.160;2022-09-12T14:41:35;98371.34;;;23.28;37.88
66857;BME280;53766;50.280;19.160;2022-09-12T14:44:07;98376.72;;;23.28;37.97
66857;BME280;53766;50.280;19.160;2022-09-12T14:46:38;98376.72;;;23.28;37.97
66857;BME280;53766;50.280;19.160;2022-09-12T14:49:32;98380.69;;;23.26;38.27
66857;BME280;53766;50.280;19.160;2022-09-12T14:52:06;98369.69;;;23.27;38.09
66857;BME280;53766;50.280;19.160;2022-09-12T14:54:36;98370.75;;;23.26;38.30
66857;BME280;53766;50.280;19.160;2022-09-12T14:57:28;98373.44;;;23.26;38.20
66857;BME280;53766;50.280;19.160;2022-09-12T15:02:48;98366.19;;;23.27;38.40
66857;BME280;53766;50.280;19.160;2022-09-12T15:05:23;98369.47;;;23.29;38.38
66857;BME280;53766;50.280;19.160;2022-09-12T15:07:53;98371.34;;;23.28;38.47
66857;BME280;53766;50.280;19.160;2022-09-12T15:10:35;98377.75;;;23.27;38.56
66857;BME280;53766;50.280;19.160;2022-09-12T15:15:37;98371.81;;;23.25;38.75
66857;BME280;53766;50.280;19.160;2022-09-12T15:18:06;98374.25;;;23.27;38.75
66857;BME280;53766;50.280;19.160;2022-09-12T15:20:36;98371.56;;;23.27;38.59
66857;BME280;53766;50.280;19.160;2022-09-12T15:23:24;98368.06;;;23.26;38.69
66857;BME280;53766;50.280;19.160;2022-09-12T15:25:53;98378.81;;;23.26;38.82
66857;BME280;53766;50.280;19.160;2022-09-12T15:28:22;98378.81;;;23.26;38.74
66857;BME280;53766;50.280;19.160;2022-09-12T15:30:52;98384.19;;;23.26;38.92
66857;BME280;53766;50.280;19.160;2022-09-12T15:33:22;98391.19;;;23.27;38.85
66857;BME280;53766;50.280;19.160;2022-09-12T15:35:51;98389.56;;;23.26;39.02
66857;BME280;53766;50.280;19.160;2022-09-12T15:38:19;98390.38;;;23.27;39.24
66857;BME280;53766;50.280;19.160;2022-09-12T15:40:53;98383.38;;;23.26;39.07